Cape Canary — 7KAM — position and weather

sailwx.info

Track history (hours):
 
Tides and Currents Weather Stations Pressure Air Temp Water Temp Dewpoint Dewpoint Depression Visibility Wind Speed Wind Dir Waves Ship Positions

Cape Canary

Last reported at 2018-Jan-22 04:54 UTC. Time now 2018-Feb-25 13:16 UTC.
Position N 17°13' W 060°53'.
Warning: this ship's position is 34 days out of date.

Length 292 m; draft 17.5 m.

Type: Cargo ship. MMSI: 431501000.

Date/timePositionNaut miles runAvg speedWind from/ knotsBaromVisibWave heightAir tempDewpointWater temp
2018-Jan-22 04:54N 17°13' W 060°53'612.7
2018-Jan-22 04:23N 17°17' W 060°58'512.6
2018-Jan-22 04:00N 17°20' W 061°03'612.4
2018-Jan-22 03:30N 17°23' W 061°08'612.4
2018-Jan-22 03:00N 17°27' W 061°13'612.5
2018-Jan-22 02:30N 17°31' W 061°18'612.5
2018-Jan-22 02:00N 17°34' W 061°24'612.4
2018-Jan-22 01:30N 17°38' W 061°29'612.5
2018-Jan-22 01:00N 17°41' W 061°34'612.6
2018-Jan-22 00:30N 17°45' W 061°40'712.5
2018-Jan-21 23:58N 17°49' W 061°45'712.4
2018-Jan-21 23:26N 17°53' W 061°51'512.4
2018-Jan-21 23:00N 17°55' W 061°56'712.4
2018-Jan-21 22:25N 17°58' W 062°03'512.5
2018-Jan-21 21:59N 18°01' W 062°08'  
Track history (hours):
 
Tides and Currents Weather Stations Pressure Air Temp Water Temp Dewpoint Dewpoint Depression Visibility Wind Speed Wind Dir Waves Ship Positions

Cape Canary

Last reported at 2018-Jan-22 04:54 UTC. Time now 2018-Feb-25 13:16 UTC.
Position N 17°13' W 060°53'.
Warning: this ship's position is 34 days out of date.

Length 292 m; draft 17.5 m.

Type: Cargo ship. MMSI: 431501000.

Date/timePositionNaut miles runAvg speedWind from/ knotsBaromVisibWave heightAir tempDewpointWater temp
2018-Jan-22 04:54N 17°13' W 060°53'612.7
2018-Jan-22 04:23N 17°17' W 060°58'512.6
2018-Jan-22 04:00N 17°20' W 061°03'612.4
2018-Jan-22 03:30N 17°23' W 061°08'612.4
2018-Jan-22 03:00N 17°27' W 061°13'612.5
2018-Jan-22 02:30N 17°31' W 061°18'612.5
2018-Jan-22 02:00N 17°34' W 061°24'612.4
2018-Jan-22 01:30N 17°38' W 061°29'612.5
2018-Jan-22 01:00N 17°41' W 061°34'612.6
2018-Jan-22 00:30N 17°45' W 061°40'712.5
2018-Jan-21 23:58N 17°49' W 061°45'712.4
2018-Jan-21 23:26N 17°53' W 061°51'512.4
2018-Jan-21 23:00N 17°55' W 061°56'712.4
2018-Jan-21 22:25N 17°58' W 062°03'512.5
2018-Jan-21 21:59N 18°01' W 062°08'  

Dump ship's entire track history